Change the Weather History Date:

Tuesday, December 18, 2012

  Actual Average Record
Temperature  
Mean Temperature 68 °F -  
Max Temperature 77 °F 71 °F 84 °F (1987)
Min Temperature 59 °F 48 °F 32 °F (1973)
Cooling Degree Days 3    
Growing Degree Days 18 (Base 50)    
Moisture  
Dew Point 67 °F    
Average Humidity 90    
Maximum Humidity 100    
Minimum Humidity 78    
Precipitation  
Precipitation 0.00 in - - ()
Sea Level Pressure  
Sea Level Pressure 29.98 in    
Wind  
Wind Speed 7 mph (WSW)    
Max Wind Speed 13 mph    
Max Gust Speed 16 mph    
Visibility 9 miles    
Events      
Averages and records for this station are not official NWS values.
T = Trace of Precipitation, MM = Missing Value Source: NWS Daily Summary

Daily Weather History Graph

Daily Weather History Graph

Search for Another Location

Airport or City:

Trip Planner

Search our weather history database for the weather conditions in past years. The results will help you decide how hot, cold, wet, or windy it might be!

Date:

Astronomy

Dec. 18, 2012 Rise Set
Actual Time 7:13 AM EST 5:39 PM EST
Civil Twilight 6:47 AM EST 6:05 PM EST
Nautical Twilight 6:18 AM EST 6:34 PM EST
Astronomical Twilight 5:50 AM EST 7:02 PM EST
Moon 11:21 AM EST (12/18) 11:33 PM EST (12/18)
Length of Visible Light 11h 17m
Length of Day
10h 26m
Waxing Crescent, 34% of the Moon is Illuminated
Dec 18
Waxing Crescent
Dec 20
First Quarter
Dec 28
Full
Jan 4
Last Quarter
Jan 11
New

Hourly Weather History & Observations

Time (EST) Temp. Dew Point Humidity Pressure Visibility Wind Dir Wind Speed Gust Speed Precip Events Conditions
12:15 AM 69.8 °F 68.0 °F 94% 29.94 in 7.0 mi South 5.8 mph - N/A   Clear
12:35 AM 69.8 °F 68.0 °F 94% 29.93 in 7.0 mi South 6.9 mph - N/A   Clear
12:55 AM 69.8 °F 69.8 °F 100% 29.93 in 9.0 mi South 8.1 mph - N/A   Clear
1:15 AM 69.8 °F 68.0 °F 94% 29.93 in 9.0 mi SSW 5.8 mph - N/A   Clear
1:35 AM 71.6 °F 68.0 °F 88% 29.92 in 9.0 mi South 6.9 mph - N/A   Clear
1:55 AM 69.8 °F 68.0 °F 94% 29.91 in 9.0 mi South 9.2 mph - N/A   Clear
2:15 AM 71.6 °F 68.0 °F 88% 29.92 in 10.0 mi SSW 11.5 mph - N/A   Clear
2:35 AM 71.6 °F 68.0 °F 88% 29.92 in 10.0 mi South 9.2 mph - N/A   Clear
2:55 AM 71.6 °F 68.0 °F 88% 29.92 in 9.0 mi SSW 9.2 mph - N/A   Clear
3:15 AM 71.6 °F 68.0 °F 88% 29.92 in 10.0 mi SSW 6.9 mph - N/A   Clear
3:35 AM 71.6 °F 68.0 °F 88% 29.92 in 10.0 mi SSW 9.2 mph - N/A   Clear
3:55 AM 71.6 °F 68.0 °F 88% 29.92 in 9.0 mi SW 9.2 mph - N/A   Clear
4:15 AM 69.8 °F 68.0 °F 94% 29.93 in 8.0 mi SW 6.9 mph - N/A   Clear
4:35 AM 69.8 °F 68.0 °F 94% 29.93 in 8.0 mi SW 6.9 mph - N/A   Clear
4:55 AM 71.6 °F 69.8 °F 94% 29.94 in 8.0 mi WSW 5.8 mph - N/A   Clear
5:15 AM 69.8 °F 68.0 °F 94% 29.94 in 8.0 mi WSW 5.8 mph - N/A   Clear
5:35 AM 69.8 °F 68.0 °F 94% 29.95 in 8.0 mi WSW 3.5 mph - N/A   Clear
5:55 AM 69.8 °F 68.0 °F 94% 29.95 in 8.0 mi SW 3.5 mph - N/A   Clear
6:15 AM 68.0 °F 68.0 °F 100% 29.96 in 6.0 mi SSW 4.6 mph - N/A   Clear
6:35 AM 69.8 °F 68.0 °F 94% 29.97 in 7.0 mi SSW 5.8 mph - N/A   Clear
6:55 AM 69.8 °F 69.8 °F 100% 29.97 in 7.0 mi SSW 4.6 mph - N/A   Clear
7:15 AM 69.8 °F 69.8 °F 100% 29.97 in 7.0 mi SSW 5.8 mph - N/A   Clear
7:35 AM 69.8 °F 69.8 °F 100% 29.98 in 5.0 mi SSW 5.8 mph - N/A   Clear
7:55 AM 71.6 °F 69.8 °F 94% 29.98 in 5.0 mi SSW 6.9 mph - N/A   Scattered Clouds
8:15 AM 71.6 °F 69.8 °F 94% 29.99 in 5.0 mi SSW 5.8 mph - N/A   Scattered Clouds
8:35 AM 71.6 °F 71.6 °F 100% 29.99 in 6.0 mi SSW 6.9 mph - N/A   Partly Cloudy
8:55 AM 71.6 °F 71.6 °F 100% 30.00 in 7.0 mi SSW 8.1 mph - N/A   Scattered Clouds
9:15 AM 73.4 °F 71.6 °F 94% 30.00 in 8.0 mi SSW 9.2 mph - N/A   Scattered Clouds
9:35 AM 73.4 °F 71.6 °F 94% 30.00 in 9.0 mi SSW 10.4 mph - N/A   Clear
9:55 AM 73.4 °F 71.6 °F 94% 30.01 in 9.0 mi SSW 10.4 mph - N/A   Clear
10:15 AM 75.2 °F 71.6 °F 89% 30.01 in 9.0 mi SW 10.4 mph - N/A   Clear
10:35 AM 75.2 °F 71.6 °F 89% 30.01 in 10.0 mi SW 10.4 mph - N/A   Clear
10:55 AM 75.2 °F 71.6 °F 89% 30.01 in 10.0 mi SW 10.4 mph - N/A   Clear
11:15 AM 75.2 °F 71.6 °F 89% 30.01 in 10.0 mi SW 9.2 mph - N/A   Clear
11:35 AM 75.2 °F 71.6 °F 89% 30.01 in 10.0 mi SW 10.4 mph - N/A   Partly Cloudy
11:55 AM 75.2 °F 71.6 °F 89% 30.01 in 10.0 mi SW 9.2 mph - N/A   Mostly Cloudy
12:15 PM 77.0 °F 71.6 °F 83% 29.99 in 7.0 mi SW 10.4 mph - N/A   Scattered Clouds
12:35 PM 77.0 °F 71.6 °F 83% 29.98 in 10.0 mi SW 10.4 mph - N/A   Scattered Clouds
12:55 PM 77.0 °F 71.6 °F 83% 29.98 in 10.0 mi West 9.2 mph - N/A   Partly Cloudy
1:15 PM 77.0 °F 71.6 °F 83% 29.97 in 10.0 mi WSW 10.4 mph - N/A   Clear
1:35 PM 75.2 °F 71.6 °F 89% 29.97 in 9.0 mi WSW 10.4 mph - N/A   Clear
1:55 PM 75.2 °F 71.6 °F 89% 29.97 in 8.0 mi West 10.4 mph - N/A   Scattered Clouds
2:15 PM 75.2 °F 71.6 °F 89% 29.97 in 10.0 mi West 11.5 mph - N/A   Scattered Clouds
2:35 PM 75.2 °F 71.6 °F 89% 29.98 in 10.0 mi WNW 10.4 mph - N/A   Clear
2:55 PM 75.2 °F 69.8 °F 83% 29.97 in 8.0 mi NW 12.7 mph - N/A   Clear
3:15 PM 75.2 °F 68.0 °F 78% 29.98 in 9.0 mi NW 10.4 mph 16.1 mph N/A   Clear
3:35 PM 75.2 °F 68.0 °F 78% 29.97 in 9.0 mi NW 12.7 mph - N/A   Clear
3:55 PM 75.2 °F 68.0 °F 78% 29.97 in 9.0 mi NW 10.4 mph - N/A   Clear
4:15 PM 73.4 °F 66.2 °F 78% 29.97 in 9.0 mi NW 6.9 mph - N/A   Clear
4:35 PM 73.4 °F 66.2 °F 78% 29.98 in 9.0 mi NW 8.1 mph - N/A   Clear
4:55 PM 73.4 °F 66.2 °F 78% 29.98 in 9.0 mi NW 8.1 mph - N/A   Clear
5:15 PM 71.6 °F 66.2 °F 83% 29.99 in 8.0 mi NW 10.4 mph - N/A   Clear
5:35 PM 71.6 °F 66.2 °F 83% 29.99 in 7.0 mi NNW 6.9 mph - N/A   Clear
5:55 PM 71.6 °F 66.2 °F 83% 29.99 in 10.0 mi NNW 5.8 mph - N/A   Clear
6:15 PM 69.8 °F 64.4 °F 83% 29.99 in 10.0 mi NNW 3.5 mph - N/A   Clear
6:35 PM 69.8 °F 64.4 °F 83% 30.00 in 10.0 mi NNW 3.5 mph - N/A   Clear
6:55 PM 68.0 °F 64.4 °F 88% 30.00 in 10.0 mi Calm Calm - N/A   Clear
7:15 PM 68.0 °F 66.2 °F 94% 30.01 in 8.0 mi NNW 3.5 mph - N/A   Clear
7:35 PM 66.2 °F 64.4 °F 94% 30.02 in 8.0 mi Calm Calm - N/A   Clear
7:55 PM 66.2 °F 64.4 °F 94% 30.02 in 8.0 mi Calm Calm - N/A   Clear
8:15 PM 66.2 °F 62.6 °F 88% 30.03 in 10.0 mi Calm Calm - N/A   Clear
8:35 PM 66.2 °F 62.6 °F 88% 30.03 in 10.0 mi North 3.5 mph - N/A   Clear
8:55 PM 66.2 °F 62.6 °F 88% 30.04 in 10.0 mi North 5.8 mph - N/A   Clear
9:15 PM 64.4 °F 62.6 °F 94% 30.04 in 10.0 mi North 5.8 mph - N/A   Clear
9:35 PM 64.4 °F 62.6 °F 94% 30.04 in 9.0 mi NNE 4.6 mph - N/A   Clear
9:55 PM 64.4 °F 60.8 °F 88% 30.05 in 10.0 mi North 5.8 mph - N/A   Clear
10:15 PM 64.4 °F 59.0 °F 83% 30.05 in 10.0 mi North 5.8 mph - N/A   Clear
10:35 PM 62.6 °F 59.0 °F 88% 30.05 in 10.0 mi Calm Calm - N/A   Clear
10:55 PM 62.6 °F 59.0 °F 88% 30.05 in 10.0 mi NE 3.5 mph - N/A   Clear
11:15 PM 60.8 °F 59.0 °F 94% 30.05 in 7.0 mi NE 3.5 mph - N/A   Clear
11:35 PM 59.0 °F 59.0 °F 100% 30.05 in 8.0 mi NNE 3.5 mph - N/A   Clear
11:55 PM 59.0 °F 59.0 °F 100% 30.05 in 6.0 mi Calm Calm - N/A   Clear